Time;durP1;ratioP1;P1;durP2;ratioP2;P2;SDS_P1;SDS_P2;PMS_P1;PMS_P2;Temp;Humidity;BMP_temperature;BMP_pressure;BME280_temperature;BME280_humidity;BME280_pressure;Samples;Min_cycle;Max_cycle;Signal;HPM_P1;HPM_P2
2024/01/20 00:02:08;;;;;;;;;;;1.80;99.90;;;;;;4993869;28;19949;-84
2024/01/20 00:04:33;;;;;;;;;;;0.20;99.90;;;;;;4991958;28;19923;-83
2024/01/20 00:06:59;;;;;;;;;;;0.70;99.90;;;;;;4986485;28;20016;-84
2024/01/20 00:09:24;;;;;;;;;;;2.20;99.90;;;;;;4986116;28;19930;-84
2024/01/20 00:11:50;;;;;;;;;;;1.00;99.90;;;;;;5006084;28;19944;-84
2024/01/20 00:14:16;;;;;;;;;;;0.70;99.90;;;;;;4962208;28;19929;-84
2024/01/20 00:16:41;;;;;;;;;;;2.00;99.90;;;;;;4980064;28;19968;-83
2024/01/20 00:19:07;;;;;;;;;;;0.20;99.90;;;;;;4996708;28;19983;-84
2024/01/20 00:21:32;;;;;;;;;;;1.20;99.90;;;;;;4984287;28;19922;-84
2024/01/20 00:23:58;;;;;;;;;;;0.90;99.90;;;;;;5009605;28;19984;-83
2024/01/20 00:26:24;;;;;;;;;;;0.90;99.90;;;;;;4995020;28;19952;-83
2024/01/20 00:28:49;;;;;;;;;;;0.10;99.90;;;;;;5003358;28;19929;-84
2024/01/20 00:31:15;;;;;;;;;;;0.10;99.90;;;;;;4986987;28;20313;-83
2024/01/20 00:33:41;;;;;;;;;;;0.00;99.90;;;;;;4989333;28;19979;-83
2024/01/20 00:36:07;;;;;;;;;;;0.00;99.90;;;;;;5011076;28;20270;-84
2024/01/20 00:38:33;;;;;;;;;;;0.00;99.90;;;;;;4992359;28;20361;-83
2024/01/20 00:40:59;;;;;;;;;;;0.00;99.90;;;;;;5002989;28;19922;-84
2024/01/20 00:43:24;;;;;;;;;;;-0.10;99.90;;;;;;4996549;28;20139;-84
2024/01/20 00:45:50;;;;;;;;;;;1.50;99.90;;;;;;4981390;28;19941;-84
2024/01/20 00:48:15;;;;;;;;;;;2.20;99.90;;;;;;4996680;28;19926;-84
2024/01/20 00:50:41;;;;;;;;;;;2.00;99.90;;;;;;5013140;28;19921;-84
2024/01/20 00:53:07;;;;;;;;;;;1.40;99.90;;;;;;4994682;28;20289;-84
2024/01/20 00:55:32;;;;;;;;;;;1.90;99.90;;;;;;4994173;28;19929;-84
2024/01/20 00:57:58;;;;;;;;;;;0.10;99.90;;;;;;4996748;28;19926;-84
2024/01/20 01:00:24;;;;;;;;;;;-0.10;99.90;;;;;;5012726;28;19926;-84
2024/01/20 01:02:49;;;;;;;;;;;1.00;99.90;;;;;;4983140;28;19933;-84
2024/01/20 01:05:15;;;;;;;;;;;0.30;99.90;;;;;;4993071;28;19926;-84
2024/01/20 01:07:40;;;;;;;;;;;1.00;99.90;;;;;;5003451;28;19972;-84
2024/01/20 01:10:06;;;;;;;;;;;-0.10;99.90;;;;;;4991335;28;19925;-84
2024/01/20 01:12:32;;;;;;;;;;;-0.10;99.90;;;;;;4995107;28;19975;-83
2024/01/20 01:14:58;;;;;;;;;;;0.50;99.90;;;;;;5013261;28;19968;-83
2024/01/20 01:17:24;;;;;;;;;;;1.40;99.90;;;;;;5004113;28;20772;-83
2024/01/20 01:19:49;;;;;;;;;;;1.10;99.90;;;;;;4974651;28;19925;-84
2024/01/20 01:22:15;;;;;;;;;;;1.00;99.90;;;;;;5018638;28;19932;-83
2024/01/20 01:24:40;;;;;;;;;;;0.70;99.90;;;;;;4999877;28;19976;-83
2024/01/20 01:27:06;;;;;;;;;;;-0.10;99.90;;;;;;5002279;28;19922;-84
2024/01/20 01:29:31;;;;;;;;;;;1.30;99.90;;;;;;4996974;28;19925;-83
2024/01/20 01:31:57;;;;;;;;;;;0.30;99.90;;;;;;4997103;28;20012;-84
2024/01/20 01:34:23;;;;;;;;;;;1.80;99.90;;;;;;4994324;28;19921;-83
2024/01/20 01:36:49;;;;;;;;;;;1.70;99.90;;;;;;5016583;28;20439;-84
2024/01/20 01:39:17;;;;;;;;;;;1.40;99.90;;;;;;5009950;28;20301;-84
2024/01/20 01:41:43;;;;;;;;;;;-0.10;99.90;;;;;;5008678;28;19952;-83
2024/01/20 01:44:09;;;;;;;;;;;1.90;99.90;;;;;;4998023;28;19965;-83
2024/01/20 01:46:34;;;;;;;;;;;1.90;99.90;;;;;;5010614;28;19983;-83
2024/01/20 01:49:00;;;;;;;;;;;-0.10;99.90;;;;;;5011716;28;19925;-84
2024/01/20 01:51:26;;;;;;;;;;;-0.10;99.90;;;;;;5015181;28;20378;-83
2024/01/20 01:53:52;;;;;;;;;;;1.50;99.90;;;;;;4983774;28;20385;-84
2024/01/20 01:56:19;;;;;;;;;;;0.70;99.90;;;;;;4986594;28;20025;-84
2024/01/20 01:58:45;;;;;;;;;;;0.00;99.90;;;;;;4987232;28;19933;-85
2024/01/20 02:01:11;;;;;;;;;;;0.00;99.90;;;;;;5005928;28;20370;-85
2024/01/20 02:03:37;;;;;;;;;;;-0.10;99.90;;;;;;4980420;28;19921;-84
2024/01/20 02:06:03;;;;;;;;;;;-0.10;99.90;;;;;;5001809;28;19947;-84
2024/01/20 02:08:28;;;;;;;;;;;-0.10;99.90;;;;;;4999062;28;20012;-85
2024/01/20 02:10:55;;;;;;;;;;;1.80;99.90;;;;;;4998473;28;19933;-84
2024/01/20 02:13:21;;;;;;;;;;;0.90;99.90;;;;;;4994461;28;19922;-85
2024/01/20 02:15:47;;;;;;;;;;;0.90;99.90;;;;;;4998555;28;20000;-85
2024/01/20 02:18:13;;;;;;;;;;;-0.20;99.90;;;;;;5004870;28;20262;-85
2024/01/20 02:20:38;;;;;;;;;;;1.70;99.90;;;;;;4999167;28;19926;-85
2024/01/20 02:23:04;;;;;;;;;;;0.30;99.90;;;;;;4998874;28;19918;-85
2024/01/20 02:25:30;;;;;;;;;;;-0.10;99.90;;;;;;5012277;28;19925;-85
2024/01/20 02:27:55;;;;;;;;;;;0.70;99.90;;;;;;5012431;28;19929;-84
2024/01/20 02:30:21;;;;;;;;;;;0.70;99.90;;;;;;4999320;28;20008;-84
2024/01/20 02:32:46;;;;;;;;;;;0.70;99.90;;;;;;5010200;28;19925;-84
2024/01/20 02:35:12;;;;;;;;;;;0.00;99.90;;;;;;4998937;28;19929;-84
2024/01/20 02:37:38;;;;;;;;;;;1.50;99.90;;;;;;5015265;28;20274;-84
2024/01/20 02:40:04;;;;;;;;;;;1.80;99.90;;;;;;4999078;28;20007;-84
2024/01/20 02:42:29;;;;;;;;;;;-0.50;99.90;;;;;;5009848;28;19929;-85
2024/01/20 02:44:55;;;;;;;;;;;1.60;99.90;;;;;;5014696;28;20297;-85
2024/01/20 02:47:21;;;;;;;;;;;1.50;99.90;;;;;;4987723;28;20386;-85
2024/01/20 02:49:46;;;;;;;;;;;1.50;99.90;;;;;;4998562;28;19926;-84
2024/01/20 02:52:12;;;;;;;;;;;1.70;99.90;;;;;;4993119;28;19979;-85
2024/01/20 02:54:37;;;;;;;;;;;1.30;99.90;;;;;;5013525;28;19922;-85
2024/01/20 02:57:03;;;;;;;;;;;-0.40;99.90;;;;;;5015132;28;20309;-85
2024/01/20 02:59:29;;;;;;;;;;;-0.60;99.90;;;;;;5021216;28;19930;-85
2024/01/20 03:01:54;;;;;;;;;;;1.50;99.90;;;;;;5010040;28;19921;-85
2024/01/20 03:04:20;;;;;;;;;;;-0.60;99.90;;;;;;5007721;28;20024;-84
2024/01/20 03:06:45;;;;;;;;;;;-0.50;99.90;;;;;;4998526;28;19929;-84
2024/01/20 03:09:14;;;;;;;;;;;1.60;99.90;;;;;;4997690;28;19925;-85
2024/01/20 03:11:41;;;;;;;;;;;0.30;99.90;;;;;;5014124;28;19922;-85
2024/01/20 03:14:06;;;;;;;;;;;-0.20;99.90;;;;;;5014657;28;19949;-85
2024/01/20 03:16:32;;;;;;;;;;;1.30;99.90;;;;;;4997860;28;19921;-85
2024/01/20 03:18:58;;;;;;;;;;;-0.80;99.90;;;;;;4997311;28;20008;-84
2024/01/20 03:21:23;;;;;;;;;;;0.60;99.90;;;;;;4996752;28;19932;-85
2024/01/20 03:23:49;;;;;;;;;;;-0.90;99.90;;;;;;4978199;28;19930;-85
2024/01/20 03:26:14;;;;;;;;;;;-0.80;99.90;;;;;;4970497;28;19922;-85
2024/01/20 03:28:40;;;;;;;;;;;-0.20;99.90;;;;;;4994688;28;19984;-85
2024/01/20 03:31:06;;;;;;;;;;;-0.30;99.90;;;;;;5013338;28;19937;-85
2024/01/20 03:33:32;;;;;;;;;;;-0.80;99.90;;;;;;4993546;28;20060;-85
2024/01/20 03:35:57;;;;;;;;;;;0.00;99.90;;;;;;5013275;28;19921;-83
2024/01/20 03:38:23;;;;;;;;;;;1.30;99.90;;;;;;4993752;28;19929;-83
2024/01/20 03:40:48;;;;;;;;;;;-0.80;99.90;;;;;;5007148;28;19925;-84
2024/01/20 03:43:16;;;;;;;;;;;-0.80;99.90;;;;;;4980147;28;20428;-84
2024/01/20 03:45:42;;;;;;;;;;;0.60;99.90;;;;;;5012822;28;19925;-83
2024/01/20 03:48:08;;;;;;;;;;;-0.70;99.90;;;;;;5007796;28;19928;-84
2024/01/20 03:50:34;;;;;;;;;;;0.50;99.90;;;;;;4979967;28;19922;-83
2024/01/20 03:52:59;;;;;;;;;;;0.90;99.90;;;;;;4984340;28;20270;-83
2024/01/20 03:55:25;;;;;;;;;;;0.90;99.90;;;;;;4995423;28;19921;-84
2024/01/20 03:57:51;;;;;;;;;;;-0.80;99.90;;;;;;5010742;28;19925;-83
2024/01/20 04:00:16;;;;;;;;;;;-0.70;99.90;;;;;;4986719;28;19936;-83
2024/01/20 04:02:42;;;;;;;;;;;-0.70;99.90;;;;;;5011279;28;19929;-83
2024/01/20 04:05:08;;;;;;;;;;;-0.70;99.90;;;;;;4981834;28;19988;-85
2024/01/20 04:07:33;;;;;;;;;;;-0.80;99.90;;;;;;5011016;28;19917;-86
2024/01/20 04:09:59;;;;;;;;;;;0.90;99.90;;;;;;4981141;28;19929;-85
2024/01/20 04:12:25;;;;;;;;;;;0.80;99.90;;;;;;4989946;28;19922;-84
2024/01/20 04:14:50;;;;;;;;;;;-0.80;99.90;;;;;;4979624;28;20334;-85
2024/01/20 04:17:16;;;;;;;;;;;0.00;99.90;;;;;;5008034;28;19922;-84
2024/01/20 04:19:42;;;;;;;;;;;-0.90;99.90;;;;;;4998588;28;19945;-84
2024/01/20 04:22:07;;;;;;;;;;;0.00;99.90;;;;;;5013319;28;20008;-84
2024/01/20 04:24:33;;;;;;;;;;;0.60;99.90;;;;;;4994805;28;20370;-84
2024/01/20 04:26:58;;;;;;;;;;;-0.10;99.90;;;;;;4983739;28;19971;-84
2024/01/20 04:29:24;;;;;;;;;;;-0.90;99.90;;;;;;5013115;28;19999;-85
2024/01/20 04:31:49;;;;;;;;;;;-0.90;99.90;;;;;;4999147;28;20025;-84
2024/01/20 04:34:15;;;;;;;;;;;-0.90;99.90;;;;;;4981177;28;19921;-85
2024/01/20 04:36:40;;;;;;;;;;;-0.80;99.90;;;;;;5016068;28;20301;-84
2024/01/20 04:39:06;;;;;;;;;;;1.10;99.90;;;;;;4998400;28;19922;-84
2024/01/20 04:41:32;;;;;;;;;;;-0.90;99.90;;;;;;5001674;28;20363;-85
2024/01/20 04:43:57;;;;;;;;;;;0.70;99.90;;;;;;4997654;28;20349;-84
2024/01/20 04:46:23;;;;;;;;;;;1.00;99.90;;;;;;4991825;28;19977;-84
2024/01/20 04:48:48;;;;;;;;;;;-1.00;99.90;;;;;;4986370;28;19926;-84
2024/01/20 04:51:14;;;;;;;;;;;-0.50;99.90;;;;;;5006049;28;19925;-84
2024/01/20 04:53:39;;;;;;;;;;;-1.10;99.90;;;;;;4977368;28;20377;-84
2024/01/20 04:56:05;;;;;;;;;;;0.70;99.90;;;;;;5004061;28;19922;-85
2024/01/20 04:58:31;;;;;;;;;;;-1.00;99.90;;;;;;5014411;28;19929;-84
2024/01/20 05:00:57;;;;;;;;;;;-1.00;99.90;;;;;;5005709;28;19921;-85
2024/01/20 05:03:22;;;;;;;;;;;-0.90;99.90;;;;;;4997456;28;19921;-84
2024/01/20 05:05:48;;;;;;;;;;;1.10;99.90;;;;;;5014553;28;19921;-84
2024/01/20 05:08:13;;;;;;;;;;;-0.80;99.90;;;;;;5014152;28;19922;-84
2024/01/20 05:10:39;;;;;;;;;;;-1.00;99.90;;;;;;4981595;28;20434;-84
2024/01/20 05:13:05;;;;;;;;;;;-0.80;99.90;;;;;;4964470;28;20366;-85
2024/01/20 05:15:30;;;;;;;;;;;0.60;99.90;;;;;;4996589;28;19922;-85
2024/01/20 05:17:56;;;;;;;;;;;-0.40;99.90;;;;;;5010302;28;19925;-84
2024/01/20 05:20:21;;;;;;;;;;;0.80;99.90;;;;;;4999408;28;19921;-85
2024/01/20 05:22:47;;;;;;;;;;;0.50;99.90;;;;;;5016633;28;19921;-84
2024/01/20 05:25:13;;;;;;;;;;;-1.10;99.90;;;;;;5004499;28;19930;-85
2024/01/20 05:27:38;;;;;;;;;;;-1.00;99.90;;;;;;5000405;28;20392;-85
2024/01/20 05:30:05;;;;;;;;;;;0.20;99.90;;;;;;5015638;28;20399;-84
2024/01/20 05:32:30;;;;;;;;;;;-1.00;99.90;;;;;;5000245;28;19926;-84
2024/01/20 05:34:56;;;;;;;;;;;-1.10;99.90;;;;;;4992446;28;20009;-84
2024/01/20 05:37:22;;;;;;;;;;;-1.20;99.90;;;;;;5011022;28;19922;-85
2024/01/20 05:39:47;;;;;;;;;;;-0.80;99.90;;;;;;4997277;28;19922;-84
2024/01/20 05:42:14;;;;;;;;;;;0.20;99.90;;;;;;5000705;28;19921;-85
2024/01/20 05:44:40;;;;;;;;;;;-0.60;99.90;;;;;;4984366;28;19956;-84
2024/01/20 05:47:05;;;;;;;;;;;1.20;99.90;;;;;;5016255;28;20379;-85
2024/01/20 05:49:31;;;;;;;;;;;-0.40;99.90;;;;;;4983235;28;19925;-84
2024/01/20 05:51:56;;;;;;;;;;;1.00;99.90;;;;;;4984025;28;19964;-84
2024/01/20 05:54:22;;;;;;;;;;;-0.10;99.90;;;;;;5007164;28;20370;-84
2024/01/20 05:56:47;;;;;;;;;;;1.60;99.90;;;;;;4985739;28;19921;-84
2024/01/20 05:59:13;;;;;;;;;;;0.50;99.90;;;;;;4988664;28;20421;-84
2024/01/20 06:01:38;;;;;;;;;;;-0.80;99.90;;;;;;5007176;28;19929;-84
2024/01/20 06:04:04;;;;;;;;;;;-0.10;99.90;;;;;;4999539;28;19918;-83
2024/01/20 06:06:30;;;;;;;;;;;-0.80;99.90;;;;;;4982434;28;20301;-84
2024/01/20 06:08:55;;;;;;;;;;;-0.60;99.90;;;;;;4985654;28;19933;-84
2024/01/20 06:11:23;;;;;;;;;;;-0.90;99.90;;;;;;4983359;28;19928;-83
2024/01/20 06:13:49;;;;;;;;;;;-1.00;99.90;;;;;;4984810;28;19933;-84
2024/01/20 06:16:15;;;;;;;;;;;-0.80;99.90;;;;;;5004220;28;19929;-85
2024/01/20 06:18:40;;;;;;;;;;;-0.50;99.90;;;;;;4996225;28;19929;-84
2024/01/20 06:21:06;;;;;;;;;;;0.80;99.90;;;;;;4994733;28;19923;-84
2024/01/20 06:23:32;;;;;;;;;;;0.60;99.90;;;;;;4981385;28;19930;-84
2024/01/20 06:25:59;;;;;;;;;;;-0.40;99.90;;;;;;4999213;28;19921;-84
2024/01/20 06:28:25;;;;;;;;;;;-0.80;99.90;;;;;;5014148;28;20392;-83
2024/01/20 06:30:51;;;;;;;;;;;0.70;99.90;;;;;;5015486;28;19928;-83
2024/01/20 06:33:16;;;;;;;;;;;0.80;99.90;;;;;;5015160;28;19922;-84
2024/01/20 06:35:42;;;;;;;;;;;-0.80;99.90;;;;;;4998742;28;19921;-84
2024/01/20 06:38:08;;;;;;;;;;;-0.80;99.90;;;;;;4997304;28;20378;-84
2024/01/20 06:40:33;;;;;;;;;;;-0.90;99.90;;;;;;4982600;28;19928;-84
2024/01/20 06:42:59;;;;;;;;;;;0.40;99.90;;;;;;4998323;28;20428;-83
2024/01/20 06:45:24;;;;;;;;;;;-0.70;99.90;;;;;;4982416;28;19932;-83
2024/01/20 06:47:50;;;;;;;;;;;-0.80;99.90;;;;;;4988976;28;19922;-83
2024/01/20 06:50:16;;;;;;;;;;;-0.70;99.90;;;;;;4993286;28;19926;-84
2024/01/20 06:52:41;;;;;;;;;;;0.50;99.90;;;;;;5014800;28;19922;-84
2024/01/20 06:55:07;;;;;;;;;;;-0.80;99.90;;;;;;4989737;28;19961;-84
2024/01/20 06:57:32;;;;;;;;;;;-0.70;99.90;;;;;;4988331;28;20736;-84
2024/01/20 06:59:58;;;;;;;;;;;1.10;99.90;;;;;;5003013;28;19936;-85
2024/01/20 07:02:24;;;;;;;;;;;-0.80;99.90;;;;;;4986442;28;20012;-85
2024/01/20 07:04:49;;;;;;;;;;;-1.90;99.90;;;;;;4997037;28;19929;-83
2024/01/20 07:07:15;;;;;;;;;;;0.70;99.90;;;;;;5011218;28;19964;-83
2024/01/20 07:09:41;;;;;;;;;;;-0.80;99.90;;;;;;5013988;28;19933;-83
2024/01/20 07:12:07;;;;;;;;;;;0.20;99.90;;;;;;5004132;28;20401;-83
2024/01/20 07:14:33;;;;;;;;;;;-0.60;99.90;;;;;;4997699;28;19922;-83
2024/01/20 07:16:58;;;;;;;;;;;-0.70;99.90;;;;;;5006251;28;20282;-83
2024/01/20 07:19:24;;;;;;;;;;;-0.80;99.90;;;;;;5016093;28;20000;-84
2024/01/20 07:21:49;;;;;;;;;;;1.40;99.90;;;;;;5017325;28;19924;-85
2024/01/20 07:24:15;;;;;;;;;;;0.30;99.90;;;;;;5009529;28;19929;-85
2024/01/20 07:26:40;;;;;;;;;;;0.90;99.90;;;;;;5003883;28;20016;-84
2024/01/20 07:29:06;;;;;;;;;;;-0.90;99.90;;;;;;4997605;28;20341;-84
2024/01/20 07:31:32;;;;;;;;;;;-0.80;99.90;;;;;;4997157;28;20321;-84
2024/01/20 07:33:58;;;;;;;;;;;1.40;99.90;;;;;;5012492;28;19967;-83
2024/01/20 07:36:23;;;;;;;;;;;-0.80;99.90;;;;;;4985239;28;19932;-83
2024/01/20 07:38:49;;;;;;;;;;;1.20;99.90;;;;;;5005847;28;19921;-82
2024/01/20 07:41:14;;;;;;;;;;;0.50;99.90;;;;;;5013340;28;19921;-82
2024/01/20 07:43:40;;;;;;;;;;;-0.70;99.90;;;;;;5013155;28;19921;-83
2024/01/20 07:46:07;;;;;;;;;;;-0.10;99.90;;;;;;5016212;28;19982;-83
2024/01/20 07:48:33;;;;;;;;;;;-0.70;99.90;;;;;;5002317;28;19933;-82
2024/01/20 07:50:58;;;;;;;;;;;-0.80;99.90;;;;;;5014536;28;19922;-82
2024/01/20 07:53:24;;;;;;;;;;;1.10;99.90;;;;;;4995840;28;19926;-82
2024/01/20 07:55:50;;;;;;;;;;;-0.10;99.90;;;;;;4984981;28;20013;-82
2024/01/20 07:58:15;;;;;;;;;;;-0.60;99.90;;;;;;4978145;28;20290;-82
2024/01/20 08:00:41;;;;;;;;;;;-0.50;99.90;;;;;;4996873;28;19952;-84
2024/01/20 08:03:06;;;;;;;;;;;0.70;99.90;;;;;;4981449;28;19956;-83
2024/01/20 08:05:32;;;;;;;;;;;-0.50;99.90;;;;;;4997754;28;19928;-82
2024/01/20 08:07:58;;;;;;;;;;;0.70;99.90;;;;;;4995331;28;19956;-83
2024/01/20 08:10:23;;;;;;;;;;;-0.30;99.90;;;;;;4977682;28;19930;-83
2024/01/20 08:12:51;;;;;;;;;;;1.40;99.90;;;;;;4994648;28;19926;-83
2024/01/20 08:15:16;;;;;;;;;;;1.30;99.90;;;;;;5011427;28;19928;-83
2024/01/20 08:17:42;;;;;;;;;;;0.20;99.90;;;;;;5009134;28;19925;-82
2024/01/20 08:20:08;;;;;;;;;;;1.70;99.90;;;;;;4979777;28;19925;-84
2024/01/20 08:22:33;;;;;;;;;;;-0.10;99.90;;;;;;4983213;28;19921;-83
2024/01/20 08:24:59;;;;;;;;;;;-0.10;99.90;;;;;;4992529;28;19925;-82
2024/01/20 08:27:25;;;;;;;;;;;0.50;99.90;;;;;;5014569;28;20346;-82
2024/01/20 08:29:50;;;;;;;;;;;-0.10;99.90;;;;;;4994607;28;20314;-83
2024/01/20 08:32:16;;;;;;;;;;;1.80;99.90;;;;;;5002672;28;19922;-84
2024/01/20 08:34:42;;;;;;;;;;;1.60;99.90;;;;;;4992570;28;19930;-83
2024/01/20 08:37:07;;;;;;;;;;;2.20;99.90;;;;;;4994488;28;19948;-83
2024/01/20 08:39:33;;;;;;;;;;;2.20;99.90;;;;;;4975700;28;20009;-84
2024/01/20 08:41:58;;;;;;;;;;;2.40;99.90;;;;;;5000873;28;20369;-84
2024/01/20 08:44:24;;;;;;;;;;;1.40;99.90;;;;;;4998038;28;19922;-83
2024/01/20 08:46:50;;;;;;;;;;;1.10;99.90;;;;;;4968330;28;19976;-83
2024/01/20 08:49:15;;;;;;;;;;;-0.10;99.90;;;;;;4995661;28;19926;-83
2024/01/20 08:51:41;;;;;;;;;;;0.40;99.90;;;;;;5008359;28;20369;-84
2024/01/20 08:54:07;;;;;;;;;;;1.20;99.90;;;;;;4988378;28;19965;-83
2024/01/20 08:56:33;;;;;;;;;;;0.30;99.90;;;;;;4999728;28;19921;-85
2024/01/20 08:58:58;;;;;;;;;;;-1.10;99.90;;;;;;5009199;28;19925;-83
2024/01/20 09:01:24;;;;;;;;;;;0.30;99.90;;;;;;5003515;28;19921;-84
2024/01/20 09:03:49;;;;;;;;;;;1.90;99.90;;;;;;5016968;28;19937;-83
2024/01/20 09:06:15;;;;;;;;;;;2.40;99.90;;;;;;4998056;28;19926;-83
2024/01/20 09:08:41;;;;;;;;;;;0.40;99.90;;;;;;4997278;28;20389;-83
2024/01/20 09:11:07;;;;;;;;;;;2.30;99.90;;;;;;4997304;28;19929;-83
2024/01/20 09:13:32;;;;;;;;;;;0.40;99.90;;;;;;4997496;28;19922;-83
2024/01/20 09:15:58;;;;;;;;;;;2.10;99.90;;;;;;4981141;28;20306;-83
2024/01/20 09:18:23;;;;;;;;;;;0.50;99.90;;;;;;4997253;28;19930;-83
2024/01/20 09:20:49;;;;;;;;;;;2.50;99.90;;;;;;5000681;28;19968;-83
2024/01/20 09:23:15;;;;;;;;;;;1.60;99.90;;;;;;4990438;28;19921;-83
2024/01/20 09:25:40;;;;;;;;;;;0.50;99.90;;;;;;5000018;28;19921;-84
2024/01/20 09:28:06;;;;;;;;;;;1.50;99.90;;;;;;4984085;28;19987;-84
2024/01/20 09:30:35;;;;;;;;;;;0.50;99.90;;;;;;4985579;28;19926;-84
2024/01/20 09:33:02;;;;;;;;;;;0.50;99.90;;;;;;4985960;28;19928;-84
2024/01/20 09:35:27;;;;;;;;;;;1.10;99.90;;;;;;5015464;28;19925;-84
2024/01/20 09:37:53;;;;;;;;;;;0.60;99.90;;;;;;4983649;28;20059;-84
2024/01/20 09:40:19;;;;;;;;;;;2.00;99.90;;;;;;4983482;28;20348;-85
2024/01/20 09:42:45;;;;;;;;;;;0.60;99.90;;;;;;5000369;28;19929;-84
2024/01/20 09:45:11;;;;;;;;;;;1.70;99.90;;;;;;4984947;28;19921;-84
2024/01/20 09:47:37;;;;;;;;;;;0.60;99.90;;;;;;5018282;28;19931;-84
2024/01/20 09:50:04;;;;;;;;;;;2.00;99.90;;;;;;5000406;28;19929;-84
2024/01/20 09:52:31;;;;;;;;;;;0.80;99.90;;;;;;5000836;28;20381;-84
2024/01/20 09:55:06;;;;;;;;;;;2.50;99.90;;;;;;4999782;28;19999;-84
2024/01/20 09:57:32;;;;;;;;;;;0.70;99.90;;;;;;5016405;28;19922;-84
2024/01/20 10:00:00;;;;;;;;;;;1.20;99.90;;;;;;4999186;28;19925;-84
2024/01/20 10:02:26;;;;;;;;;;;2.10;99.90;;;;;;5016808;28;19922;-84
2024/01/20 10:04:53;;;;;;;;;;;2.70;99.90;;;;;;5016659;28;19922;-84
2024/01/20 10:07:28;;;;;;;;;;;1.10;99.90;;;;;;5017002;28;20277;-84
2024/01/20 10:09:54;;;;;;;;;;;0.80;99.90;;;;;;5015684;28;19925;-83
2024/01/20 10:12:19;;;;;;;;;;;0.90;99.90;;;;;;4995965;28;19932;-83
2024/01/20 10:14:45;;;;;;;;;;;2.00;99.90;;;;;;4999328;28;19922;-85
2024/01/20 10:17:10;;;;;;;;;;;0.80;99.90;;;;;;4990174;28;20385;-84
2024/01/20 10:19:38;;;;;;;;;;;2.10;99.90;;;;;;4995693;28;19921;-83
2024/01/20 10:22:07;;;;;;;;;;;1.30;99.90;;;;;;4995943;28;19998;-83
2024/01/20 10:24:32;;;;;;;;;;;1.10;99.90;;;;;;4996013;28;19922;-83
2024/01/20 10:26:59;;;;;;;;;;;1.20;99.90;;;;;;4995929;28;19922;-83
2024/01/20 10:29:25;;;;;;;;;;;1.50;99.90;;;;;;4983774;28;19972;-83
2024/01/20 10:31:50;;;;;;;;;;;1.90;99.90;;;;;;4979412;28;20243;-83
2024/01/20 10:34:16;;;;;;;;;;;1.30;99.90;;;;;;4979448;28;19972;-83
2024/01/20 10:36:44;;;;;;;;;;;1.30;99.90;;;;;;4995751;28;19922;-83
2024/01/20 10:39:10;;;;;;;;;;;1.20;99.90;;;;;;4979597;28;20453;-83
2024/01/20 10:41:38;;;;;;;;;;;1.30;99.90;;;;;;4995510;28;19928;-83
2024/01/20 10:44:05;;;;;;;;;;;1.30;99.90;;;;;;4979306;28;20282;-83
2024/01/20 10:46:35;;;;;;;;;;;1.30;99.90;;;;;;5002904;28;19929;-83
2024/01/20 10:49:02;;;;;;;;;;;1.30;99.90;;;;;;4998733;28;19932;-83
2024/01/20 10:51:28;;;;;;;;;;;1.30;99.90;;;;;;4998595;28;19943;-84
2024/01/20 10:53:55;;;;;;;;;;;2.00;99.90;;;;;;5014816;28;19922;-82
2024/01/20 10:56:21;;;;;;;;;;;2.10;99.90;;;;;;5014045;28;20301;-82
2024/01/20 10:59:08;;;;;;;;;;;1.20;99.90;;;;;;5020520;28;19926;-82
2024/01/20 11:01:35;;;;;;;;;;;1.20;99.90;;;;;;4998071;28;19922;-83
2024/01/20 11:04:01;;;;;;;;;;;1.30;99.90;;;;;;4977497;28;20401;-83
2024/01/20 11:06:27;;;;;;;;;;;1.40;99.90;;;;;;4988144;28;20336;-83
2024/01/20 11:08:53;;;;;;;;;;;2.40;99.90;;;;;;5010752;28;20016;-83
2024/01/20 11:11:19;;;;;;;;;;;2.40;99.90;;;;;;4986777;28;19928;-83
2024/01/20 11:13:47;;;;;;;;;;;2.80;99.90;;;;;;4994276;28;19921;-83
2024/01/20 11:16:22;;;;;;;;;;;2.80;99.90;;;;;;4996079;28;19921;-82
2024/01/20 11:18:47;;;;;;;;;;;1.30;99.90;;;;;;5010883;28;19921;-83
2024/01/20 11:21:19;;;;;;;;;;;2.40;99.90;;;;;;5012956;28;19984;-83
2024/01/20 11:24:00;;;;;;;;;;;1.90;99.90;;;;;;5008954;28;20293;-82
2024/01/20 11:26:35;;;;;;;;;;;1.30;99.90;;;;;;4974978;28;19921;-82
2024/01/20 11:29:03;;;;;;;;;;;1.30;99.90;;;;;;4987037;28;19980;-83
2024/01/20 11:31:32;;;;;;;;;;;1.30;99.90;;;;;;5008456;28;19928;-82
2024/01/20 11:33:59;;;;;;;;;;;1.40;99.90;;;;;;4992108;28;19921;-83
2024/01/20 11:36:29;;;;;;;;;;;2.80;99.90;;;;;;4998030;28;21160;-82
2024/01/20 11:39:03;;;;;;;;;;;1.40;99.90;;;;;;4998956;28;20362;-83
2024/01/20 11:41:28;;;;;;;;;;;1.50;99.90;;;;;;4982127;28;20004;-83
2024/01/20 11:43:54;;;;;;;;;;;1.50;99.90;;;;;;4997989;28;20013;-83
2024/01/20 11:46:20;;;;;;;;;;;2.70;99.90;;;;;;5011119;28;20312;-83
2024/01/20 11:48:49;;;;;;;;;;;3.20;99.90;;;;;;5013054;28;19971;-83
2024/01/20 11:51:15;;;;;;;;;;;1.50;99.90;;;;;;4986739;28;19921;-83
2024/01/20 11:53:41;;;;;;;;;;;3.00;99.90;;;;;;4978583;28;20254;-83
2024/01/20 11:56:06;;;;;;;;;;;3.20;99.90;;;;;;5007033;28;20012;-83
2024/01/20 11:58:32;;;;;;;;;;;1.60;99.90;;;;;;4980184;28;19926;-83
2024/01/20 12:00:58;;;;;;;;;;;1.60;99.90;;;;;;4986716;28;19921;-83
2024/01/20 12:03:25;;;;;;;;;;;2.30;99.90;;;;;;4985556;28;20404;-84
2024/01/20 12:05:51;;;;;;;;;;;3.70;99.90;;;;;;4985250;28;19929;-83
2024/01/20 12:08:17;;;;;;;;;;;2.90;99.90;;;;;;4979727;28;20366;-85
2024/01/20 12:10:43;;;;;;;;;;;1.70;99.90;;;;;;5007064;28;19980;-84
2024/01/20 12:13:12;;;;;;;;;;;1.70;99.90;;;;;;5010338;28;19939;-84
2024/01/20 12:15:38;;;;;;;;;;;1.70;99.90;;;;;;5011332;28;19993;-83
2024/01/20 12:18:04;;;;;;;;;;;1.70;99.90;;;;;;4986904;28;19929;-83
2024/01/20 12:20:30;;;;;;;;;;;1.80;99.90;;;;;;5010270;28;19930;-84
2024/01/20 12:22:56;;;;;;;;;;;3.00;99.90;;;;;;4988482;28;19926;-83
2024/01/20 12:25:23;;;;;;;;;;;3.50;99.90;;;;;;4994754;28;19921;-84
2024/01/20 12:27:49;;;;;;;;;;;2.00;99.90;;;;;;4983733;28;19985;-84
2024/01/20 12:30:15;;;;;;;;;;;3.60;99.90;;;;;;5013854;28;20028;-84
2024/01/20 12:32:41;;;;;;;;;;;2.10;99.90;;;;;;4996375;28;20567;-84
2024/01/20 12:35:06;;;;;;;;;;;2.10;99.90;;;;;;4977262;28;19922;-84
2024/01/20 12:37:32;;;;;;;;;;;2.30;99.90;;;;;;4969755;28;19921;-83
2024/01/20 12:39:58;;;;;;;;;;;3.30;99.90;;;;;;4987657;28;19932;-84
2024/01/20 12:42:24;;;;;;;;;;;2.50;99.90;;;;;;4996646;28;20305;-84
2024/01/20 12:44:50;;;;;;;;;;;2.50;99.90;;;;;;5012114;28;19921;-84
2024/01/20 12:47:16;;;;;;;;;;;4.00;99.90;;;;;;4985399;28;19992;-83
2024/01/20 12:49:41;;;;;;;;;;;2.60;99.90;;;;;;4995041;28;19925;-83
2024/01/20 12:52:07;;;;;;;;;;;3.20;99.90;;;;;;5000922;28;20292;-84
2024/01/20 12:54:33;;;;;;;;;;;4.10;99.90;;;;;;5011150;28;19921;-83
2024/01/20 12:56:58;;;;;;;;;;;3.70;99.90;;;;;;4983136;28;19976;-83
2024/01/20 12:59:24;;;;;;;;;;;3.30;99.90;;;;;;5000789;28;19925;-83
2024/01/20 13:01:50;;;;;;;;;;;3.40;99.90;;;;;;5007097;28;20289;-84
2024/01/20 13:04:15;;;;;;;;;;;3.30;99.90;;;;;;4992091;28;19921;-84
2024/01/20 13:06:41;;;;;;;;;;;3.40;99.90;;;;;;5012556;28;19927;-83
2024/01/20 13:09:09;;;;;;;;;;;3.70;99.90;;;;;;5009776;28;19934;-84
2024/01/20 13:11:35;;;;;;;;;;;3.30;99.90;;;;;;5007705;28;19922;-83
2024/01/20 13:14:03;;;;;;;;;;;4.10;99.90;;;;;;5013435;28;19921;-84
2024/01/20 13:16:29;;;;;;;;;;;4.10;99.90;;;;;;4997107;28;19928;-84
2024/01/20 13:18:55;;;;;;;;;;;3.80;99.90;;;;;;5016593;28;20377;-84
2024/01/20 13:21:22;;;;;;;;;;;4.00;99.90;;;;;;4984987;28;19921;-84
2024/01/20 13:23:48;;;;;;;;;;;4.40;99.90;;;;;;5015883;28;20009;-85
2024/01/20 13:26:14;;;;;;;;;;;5.40;99.90;;;;;;4999665;28;20016;-84
2024/01/20 13:28:39;;;;;;;;;;;5.20;99.90;;;;;;5017104;28;20016;-84
2024/01/20 13:31:05;;;;;;;;;;;4.50;99.90;;;;;;5000311;28;20281;-83
2024/01/20 13:33:31;;;;;;;;;;;4.80;99.90;;;;;;5014887;28;19921;-83
2024/01/20 13:35:56;;;;;;;;;;;4.80;99.90;;;;;;5016700;28;19925;-84
2024/01/20 13:38:22;;;;;;;;;;;5.10;99.90;;;;;;5016610;28;19926;-84
2024/01/20 13:40:47;;;;;;;;;;;6.00;99.90;;;;;;4998102;28;19925;-83
2024/01/20 13:43:13;;;;;;;;;;;5.60;99.90;;;;;;5004984;28;19928;-83
2024/01/20 13:45:39;;;;;;;;;;;5.80;99.90;;;;;;5014806;28;20171;-84
2024/01/20 13:48:05;;;;;;;;;;;5.90;99.90;;;;;;5015919;28;19980;-84
2024/01/20 13:50:30;;;;;;;;;;;5.70;99.90;;;;;;5000331;28;19932;-84
2024/01/20 13:52:56;;;;;;;;;;;5.40;99.90;;;;;;5004399;28;19928;-83
2024/01/20 13:55:22;;;;;;;;;;;5.00;99.90;;;;;;4994325;28;20048;-84
2024/01/20 13:57:48;;;;;;;;;;;4.80;99.90;;;;;;4996632;28;19972;-84
2024/01/20 14:00:13;;;;;;;;;;;5.70;99.90;;;;;;5002543;28;19926;-83
2024/01/20 14:02:44;;;;;;;;;;;4.30;99.90;;;;;;5035794;28;19988;-83
2024/01/20 14:05:10;;;;;;;;;;;4.10;99.90;;;;;;5036116;28;19929;-84
2024/01/20 14:07:35;;;;;;;;;;;4.00;99.90;;;;;;5034940;28;19921;-83
2024/01/20 14:10:01;;;;;;;;;;;4.10;99.90;;;;;;5020995;28;20024;-83
2024/01/20 14:12:27;;;;;;;;;;;4.00;99.90;;;;;;5010006;28;20385;-82
2024/01/20 14:14:53;;;;;;;;;;;4.20;99.90;;;;;;4986850;28;19925;-82
2024/01/20 14:17:18;;;;;;;;;;;3.60;99.90;;;;;;5006981;28;20005;-83
2024/01/20 14:19:44;;;;;;;;;;;3.60;99.90;;;;;;5006292;28;19925;-83